Time;durP1;ratioP1;P1;durP2;ratioP2;P2;SDS_P1;SDS_P2;PMS_P1;PMS_P2;Temp;Humidity;BMP_temperature;BMP_pressure;BME280_temperature;BME280_humidity;BME280_pressure;Samples;Min_cycle;Max_cycle;Signal;HPM_P1;HPM_P2
2022/08/01 00:00:01;;;;;;;2.90;2.60;;;;;;;;;;4529275;28;20386;-59
2022/08/01 00:02:11;;;;;;;2.70;2.30;;;;;;;;;;4545580;28;20040;-58
2022/08/01 00:04:22;;;;;;;2.60;2.30;;;;;;;;;;4545927;28;20032;-59
2022/08/01 00:06:32;;;;;;;3.28;2.85;;;;;;;;;;4528202;28;20033;-59
2022/08/01 00:08:42;;;;;;;3.13;2.58;;;;;;;;;;4544738;28;20560;-59
2022/08/01 00:10:53;;;;;;;3.75;2.92;;;;;;;;;;4548378;28;20076;-58
2022/08/01 00:13:03;;;;;;;3.75;2.70;;;;;;;;;;4546037;28;20099;-58
2022/08/01 00:15:15;;;;;;;3.30;2.80;;;;;;;;;;4528696;28;20045;-59
2022/08/01 00:17:26;;;;;;;3.42;3.03;;;;;;;;;;4546092;28;20612;-58
2022/08/01 00:19:36;;;;;;;3.90;2.70;;;;;;;;;;4546100;28;20385;-59
2022/08/01 00:21:47;;;;;;;3.30;3.00;;;;;;;;;;4546754;28;20090;-58
2022/08/01 00:23:57;;;;;;;4.13;3.22;;;;;;;;;;4548020;28;20028;-58
2022/08/01 00:26:07;;;;;;;4.28;3.05;;;;;;;;;;4546331;28;20612;-59
2022/08/01 00:28:18;;;;;;;4.95;3.30;;;;;;;;;;4548205;28;20121;-59
2022/08/01 00:30:28;;;;;;;4.60;3.20;;;;;;;;;;4546579;28;20036;-58
2022/08/01 00:32:39;;;;;;;4.07;3.08;;;;;;;;;;4544775;28;20029;-58
2022/08/01 00:34:49;;;;;;;3.30;3.00;;;;;;;;;;4544818;28;20036;-58
2022/08/01 00:37:00;;;;;;;4.03;3.28;;;;;;;;;;4545438;28;20499;-58
2022/08/01 00:39:10;;;;;;;3.60;2.78;;;;;;;;;;4546231;28;20040;-58
2022/08/01 00:41:20;;;;;;;3.92;3.42;;;;;;;;;;4547068;28;20029;-59
2022/08/01 00:43:31;;;;;;;3.80;3.00;;;;;;;;;;4546626;28;20033;-58
2022/08/01 00:45:42;;;;;;;3.30;3.00;;;;;;;;;;4545384;28;20036;-59
2022/08/01 00:47:52;;;;;;;4.47;3.20;;;;;;;;;;4545891;28;20470;-58
2022/08/01 00:50:04;;;;;;;4.05;3.30;;;;;;;;;;4529067;28;22179;-58
2022/08/01 00:52:14;;;;;;;3.33;3.03;;;;;;;;;;4532648;28;20033;-59
2022/08/01 00:54:26;;;;;;;3.50;3.05;;;;;;;;;;4545481;28;20438;-58
2022/08/01 00:56:36;;;;;;;4.05;3.25;;;;;;;;;;4528295;28;20025;-58
2022/08/01 00:58:47;;;;;;;3.88;2.92;;;;;;;;;;4546979;28;20039;-58
2022/08/01 01:00:59;;;;;;;4.25;3.28;;;;;;;;;;4545407;28;20068;-58
2022/08/01 01:03:09;;;;;;;3.47;2.80;;;;;;;;;;4544684;28;20571;-59
2022/08/01 01:05:20;;;;;;;4.53;3.28;;;;;;;;;;4546177;28;20025;-58
2022/08/01 01:08:08;;;;;;;3.55;3.00;;;;;;;;;;4546831;28;20063;-58
2022/08/01 01:10:29;;;;;;;3.45;3.00;;;;;;;;;;4543700;28;20045;-58
2022/08/01 01:12:55;;;;;;;4.30;3.30;;;;;;;;;;4546025;28;20033;-58
2022/08/01 01:15:46;;;;;;;5.20;3.30;;;;;;;;;;4517103;28;20073;-58
2022/08/01 01:18:08;;;;;;;4.18;3.28;;;;;;;;;;4476949;28;20049;-58
2022/08/01 01:20:21;;;;;;;4.72;3.20;;;;;;;;;;4484992;28;20042;-58
2022/08/01 01:22:58;;;;;;;3.88;3.30;;;;;;;;;;4512937;28;20044;-58
2022/08/01 01:25:34;;;;;;;3.30;3.00;;;;;;;;;;4530462;28;20583;-58
2022/08/01 01:28:15;;;;;;;4.00;3.47;;;;;;;;;;4545838;28;20522;-58
2022/08/01 01:30:28;;;;;;;3.65;3.00;;;;;;;;;;4531727;28;20853;-59
2022/08/01 01:32:42;;;;;;;4.00;3.22;;;;;;;;;;4546005;28;20033;-58
2022/08/01 01:34:54;;;;;;;4.63;3.33;;;;;;;;;;4545370;28;20049;-58
2022/08/01 01:37:09;;;;;;;4.45;3.30;;;;;;;;;;4530457;28;20178;-58
2022/08/01 01:39:20;;;;;;;4.22;3.20;;;;;;;;;;4531424;28;20037;-59
2022/08/01 01:41:31;;;;;;;4.93;3.38;;;;;;;;;;4531315;28;20791;-61
2022/08/01 01:43:42;;;;;;;3.55;2.95;;;;;;;;;;4544761;28;20033;-59
2022/08/01 01:45:53;;;;;;;6.10;3.80;;;;;;;;;;4545498;28;20033;-59
2022/08/01 01:48:05;;;;;;;3.80;3.40;;;;;;;;;;4530838;28;20029;-60
2022/08/01 01:50:18;;;;;;;4.32;3.30;;;;;;;;;;4536988;28;20049;-59
2022/08/01 01:52:29;;;;;;;4.88;3.72;;;;;;;;;;4531999;28;20620;-62
2022/08/01 01:54:44;;;;;;;3.85;3.17;;;;;;;;;;4547128;28;20083;-59
2022/08/01 01:56:58;;;;;;;3.75;3.30;;;;;;;;;;4529489;28;20124;-58
2022/08/01 01:59:08;;;;;;;4.45;3.55;;;;;;;;;;4532639;28;20044;-57
2022/08/01 02:01:21;;;;;;;3.95;2.97;;;;;;;;;;4528387;28;20485;-58
2022/08/01 02:03:32;;;;;;;4.45;2.70;;;;;;;;;;4546502;28;20651;-58
2022/08/01 02:05:42;;;;;;;2.60;1.90;;;;;;;;;;4528961;28;20843;-59
2022/08/01 02:07:54;;;;;;;2.70;1.85;;;;;;;;;;4532549;28;20043;-58
2022/08/01 02:10:05;;;;;;;2.90;2.00;;;;;;;;;;4529582;28;20153;-58
2022/08/01 02:12:16;;;;;;;2.80;1.95;;;;;;;;;;4531260;28;20043;-58
2022/08/01 02:14:28;;;;;;;2.10;1.60;;;;;;;;;;4523322;28;20044;-58
2022/08/01 02:16:40;;;;;;;2.53;1.85;;;;;;;;;;4548093;28;20045;-58
2022/08/01 02:18:51;;;;;;;2.10;1.60;;;;;;;;;;4529220;28;20128;-58
2022/08/01 02:21:04;;;;;;;1.92;1.50;;;;;;;;;;4549538;28;20025;-58
2022/08/01 02:23:15;;;;;;;2.35;1.48;;;;;;;;;;4533404;28;20037;-58
2022/08/01 02:25:34;;;;;;;2.22;1.75;;;;;;;;;;4530095;28;20033;-58
2022/08/01 02:27:57;;;;;;;2.50;1.73;;;;;;;;;;4533326;28;20047;-58
2022/08/01 02:30:10;;;;;;;2.28;1.70;;;;;;;;;;4533966;28;20672;-58
2022/08/01 02:32:26;;;;;;;2.22;1.67;;;;;;;;;;4548120;28;20036;-59
2022/08/01 02:34:36;;;;;;;2.85;1.90;;;;;;;;;;4548086;28;20579;-58
2022/08/01 02:36:48;;;;;;;2.28;1.75;;;;;;;;;;4530930;28;20045;-58
2022/08/01 02:39:00;;;;;;;2.00;1.70;;;;;;;;;;4532536;28;20625;-58
2022/08/01 02:41:19;;;;;;;2.00;1.55;;;;;;;;;;4535217;28;20119;-58
2022/08/01 02:43:30;;;;;;;2.28;1.80;;;;;;;;;;4532780;28;20614;-59
2022/08/01 02:45:43;;;;;;;2.47;2.00;;;;;;;;;;4530281;28;20619;-58
2022/08/01 02:47:59;;;;;;;3.17;1.90;;;;;;;;;;4529553;28;20655;-58
2022/08/01 02:50:12;;;;;;;2.67;1.95;;;;;;;;;;4519731;28;20620;-58
2022/08/01 02:52:24;;;;;;;4.10;2.00;;;;;;;;;;4534421;28;20037;-58
2022/08/01 02:54:36;;;;;;;3.03;1.92;;;;;;;;;;4529942;28;20041;-58
2022/08/01 02:56:47;;;;;;;3.15;1.77;;;;;;;;;;4534453;28;20037;-58
2022/08/01 02:58:57;;;;;;;2.70;2.00;;;;;;;;;;4534693;28;20033;-58
2022/08/01 03:01:09;;;;;;;2.78;2.00;;;;;;;;;;4549340;28;20379;-58
2022/08/01 03:03:19;;;;;;;3.42;2.10;;;;;;;;;;4549619;28;20040;-58
2022/08/01 03:05:31;;;;;;;2.58;1.95;;;;;;;;;;4536133;28;20041;-58
2022/08/01 03:07:42;;;;;;;3.22;2.10;;;;;;;;;;4547832;28;20191;-59
2022/08/01 03:09:52;;;;;;;3.00;2.03;;;;;;;;;;4530068;28;20128;-58
2022/08/01 03:12:09;;;;;;;2.83;1.95;;;;;;;;;;4548246;28;20037;-58
2022/08/01 03:14:20;;;;;;;2.20;1.90;;;;;;;;;;4548314;28;20040;-58
2022/08/01 03:16:32;;;;;;;2.55;1.95;;;;;;;;;;4547633;28;20744;-58
2022/08/01 03:18:44;;;;;;;3.40;1.98;;;;;;;;;;4540307;28;20036;-58
2022/08/01 03:20:56;;;;;;;2.92;2.00;;;;;;;;;;4528994;28;20744;-58
2022/08/01 03:23:08;;;;;;;3.60;1.90;;;;;;;;;;4549562;28;20043;-58
2022/08/01 03:25:20;;;;;;;2.30;1.80;;;;;;;;;;4539849;28;20041;-59
2022/08/01 03:27:30;;;;;;;2.45;1.63;;;;;;;;;;4548898;28;20573;-58
2022/08/01 03:29:41;;;;;;;2.22;1.80;;;;;;;;;;4530737;28;20143;-58
2022/08/01 03:31:52;;;;;;;2.60;1.70;;;;;;;;;;4533864;28;20679;-58
2022/08/01 03:34:03;;;;;;;2.60;1.90;;;;;;;;;;4547233;28;20033;-58
2022/08/01 03:36:15;;;;;;;2.65;1.80;;;;;;;;;;4533161;28;20695;-58
2022/08/01 03:38:27;;;;;;;2.75;1.92;;;;;;;;;;4530034;28;20891;-59
2022/08/01 03:40:40;;;;;;;2.20;1.70;;;;;;;;;;4529678;28;20037;-58
2022/08/01 03:42:54;;;;;;;2.33;2.00;;;;;;;;;;4531978;28;20025;-59
2022/08/01 03:45:09;;;;;;;2.40;1.85;;;;;;;;;;4548054;28;20067;-58
2022/08/01 03:47:22;;;;;;;2.60;1.80;;;;;;;;;;4531829;28;20038;-58
2022/08/01 03:49:35;;;;;;;2.08;1.75;;;;;;;;;;4548843;28;20632;-58
2022/08/01 03:51:49;;;;;;;3.42;2.10;;;;;;;;;;4537337;28;20082;-58
2022/08/01 03:54:00;;;;;;;2.30;1.67;;;;;;;;;;4530870;28;20029;-58
2022/08/01 03:56:12;;;;;;;2.75;1.90;;;;;;;;;;4529408;28;20036;-58
2022/08/01 03:58:23;;;;;;;2.53;1.90;;;;;;;;;;4546154;28;20764;-58
2022/08/01 04:00:38;;;;;;;2.47;1.70;;;;;;;;;;4547697;28;20075;-59
2022/08/01 04:02:49;;;;;;;2.05;1.50;;;;;;;;;;4528670;28;20049;-58
2022/08/01 04:05:00;;;;;;;2.25;1.70;;;;;;;;;;4547515;28;20041;-58
2022/08/01 04:07:25;;;;;;;2.40;1.80;;;;;;;;;;4532078;28;20565;-58
2022/08/01 04:09:35;;;;;;;2.85;1.75;;;;;;;;;;4548666;28;20037;-58
2022/08/01 04:11:47;;;;;;;2.47;1.70;;;;;;;;;;4547235;28;20029;-58
2022/08/01 04:13:57;;;;;;;2.55;1.70;;;;;;;;;;4547722;28;20747;-57
2022/08/01 04:16:08;;;;;;;2.10;1.70;;;;;;;;;;4547850;28;20078;-58
2022/08/01 04:18:18;;;;;;;2.33;1.80;;;;;;;;;;4547797;28;20024;-58
2022/08/01 04:20:29;;;;;;;2.78;1.60;;;;;;;;;;4532357;28;20083;-58
2022/08/01 04:22:40;;;;;;;2.35;1.67;;;;;;;;;;4546037;28;20040;-58
2022/08/01 04:24:53;;;;;;;2.17;1.60;;;;;;;;;;4546694;28;20040;-58
2022/08/01 04:27:07;;;;;;;2.38;1.40;;;;;;;;;;4529853;28;20043;-57
2022/08/01 04:29:19;;;;;;;2.05;1.70;;;;;;;;;;4532373;28;20042;-58
2022/08/01 04:31:30;;;;;;;2.53;1.70;;;;;;;;;;4529605;28;20046;-58
2022/08/01 04:33:45;;;;;;;2.85;1.50;;;;;;;;;;4530141;28;20038;-58
2022/08/01 04:35:57;;;;;;;2.03;1.50;;;;;;;;;;4532797;28;20111;-58
2022/08/01 04:38:09;;;;;;;2.53;1.42;;;;;;;;;;4546919;28;20033;-58
2022/08/01 04:40:23;;;;;;;2.30;1.58;;;;;;;;;;4529739;28;20057;-58
2022/08/01 04:42:33;;;;;;;1.83;1.40;;;;;;;;;;4546889;28;20605;-58
2022/08/01 04:44:44;;;;;;;1.77;1.35;;;;;;;;;;4547242;28;20039;-58
2022/08/01 04:46:56;;;;;;;1.70;1.33;;;;;;;;;;4529110;28;20041;-58
2022/08/01 04:49:06;;;;;;;2.08;1.40;;;;;;;;;;4546293;28;20064;-58
2022/08/01 04:51:21;;;;;;;2.88;1.60;;;;;;;;;;4519976;28;20565;-58
2022/08/01 04:53:32;;;;;;;2.10;1.60;;;;;;;;;;4545746;28;20578;-58
2022/08/01 04:55:46;;;;;;;1.85;1.45;;;;;;;;;;4545650;28;20037;-57
2022/08/01 04:57:56;;;;;;;2.30;1.65;;;;;;;;;;4546284;28;20041;-56
2022/08/01 05:00:08;;;;;;;1.98;1.50;;;;;;;;;;4546274;28;20024;-58
2022/08/01 05:02:19;;;;;;;1.80;1.40;;;;;;;;;;4545844;28;20037;-58
2022/08/01 05:04:29;;;;;;;1.75;1.42;;;;;;;;;;4521769;28;20045;-58
2022/08/01 05:06:39;;;;;;;1.50;1.20;;;;;;;;;;4546869;28;20060;-57
2022/08/01 05:08:50;;;;;;;2.20;1.60;;;;;;;;;;4530550;28;20028;-58
2022/08/01 05:11:01;;;;;;;2.30;1.55;;;;;;;;;;4547572;28;20045;-58
2022/08/01 05:13:11;;;;;;;1.95;1.60;;;;;;;;;;4546395;28;20029;-58
2022/08/01 05:15:22;;;;;;;1.95;1.52;;;;;;;;;;4536872;28;20021;-58
2022/08/01 05:17:32;;;;;;;2.72;1.70;;;;;;;;;;4546907;28;20132;-58
2022/08/01 05:19:42;;;;;;;1.98;1.48;;;;;;;;;;4545830;28;20052;-58
2022/08/01 05:21:53;;;;;;;2.42;1.70;;;;;;;;;;4537345;28;20029;-58
2022/08/01 05:24:05;;;;;;;2.28;1.70;;;;;;;;;;4545271;28;20097;-57
2022/08/01 05:26:15;;;;;;;3.22;1.70;;;;;;;;;;4530410;28;20104;-58
2022/08/01 05:28:25;;;;;;;2.45;1.70;;;;;;;;;;4545045;28;20048;-58
2022/08/01 05:30:36;;;;;;;2.58;1.58;;;;;;;;;;4544437;28;20025;-58
2022/08/01 05:32:47;;;;;;;1.95;1.70;;;;;;;;;;4545900;28;20037;-58
2022/08/01 05:34:57;;;;;;;2.15;1.70;;;;;;;;;;4545234;28;20121;-61
2022/08/01 05:37:08;;;;;;;2.08;1.58;;;;;;;;;;4526402;28;20481;-57
2022/08/01 05:39:18;;;;;;;2.47;1.75;;;;;;;;;;4544277;28;20040;-56
2022/08/01 05:41:29;;;;;;;2.40;1.70;;;;;;;;;;4546058;28;20028;-57
2022/08/01 05:43:40;;;;;;;2.88;2.00;;;;;;;;;;4532889;28;20033;-57
2022/08/01 05:45:50;;;;;;;2.95;1.83;;;;;;;;;;4547305;28;20040;-56
2022/08/01 05:48:01;;;;;;;3.00;2.10;;;;;;;;;;4548796;28;20036;-57
2022/08/01 05:50:12;;;;;;;2.42;1.80;;;;;;;;;;4547906;28;20044;-57
2022/08/01 05:52:22;;;;;;;3.08;2.20;;;;;;;;;;4549945;28;20041;-57
2022/08/01 05:54:32;;;;;;;3.05;2.15;;;;;;;;;;4548842;28;20039;-57
2022/08/01 05:56:43;;;;;;;2.08;1.77;;;;;;;;;;4531396;28;20029;-57
2022/08/01 05:58:53;;;;;;;3.20;2.30;;;;;;;;;;4530733;28;20047;-57
2022/08/01 06:01:04;;;;;;;3.60;2.30;;;;;;;;;;4548138;28;20032;-56
2022/08/01 06:03:14;;;;;;;2.85;2.20;;;;;;;;;;4548469;28;20417;-56
2022/08/01 06:05:25;;;;;;;2.65;1.95;;;;;;;;;;4548698;28;20029;-57
2022/08/01 06:07:35;;;;;;;3.15;2.20;;;;;;;;;;4531196;28;20940;-58
2022/08/01 06:09:46;;;;;;;2.58;2.15;;;;;;;;;;4549908;28;20394;-57
2022/08/01 06:11:56;;;;;;;3.70;2.30;;;;;;;;;;4549036;28;20075;-58
2022/08/01 06:14:07;;;;;;;2.53;2.05;;;;;;;;;;4547602;28;20033;-59
2022/08/01 06:16:17;;;;;;;3.55;2.45;;;;;;;;;;4547451;28;20048;-57
2022/08/01 06:18:28;;;;;;;2.60;2.00;;;;;;;;;;4549784;28;20110;-59
2022/08/01 06:20:38;;;;;;;2.03;1.83;;;;;;;;;;4536168;28;20060;-58
2022/08/01 06:22:48;;;;;;;3.35;2.40;;;;;;;;;;4532004;28;20029;-58
2022/08/01 06:24:59;;;;;;;3.83;2.20;;;;;;;;;;4548297;28;20466;-58
2022/08/01 06:27:09;;;;;;;2.88;2.08;;;;;;;;;;4549258;28;20040;-58
2022/08/01 06:29:20;;;;;;;2.45;2.05;;;;;;;;;;4549038;28;20733;-58
2022/08/01 06:31:31;;;;;;;2.53;1.90;;;;;;;;;;4549980;28;20048;-58
2022/08/01 06:33:41;;;;;;;2.72;2.00;;;;;;;;;;4548901;28;20040;-57
2022/08/01 06:35:52;;;;;;;1.52;1.23;;;;;;;;;;4548721;28;20488;-57
2022/08/01 06:38:03;;;;;;;2.08;1.50;;;;;;;;;;4531367;28;20060;-57
2022/08/01 06:40:13;;;;;;;1.75;1.50;;;;;;;;;;4516573;28;20052;-57
2022/08/01 06:42:24;;;;;;;2.30;1.65;;;;;;;;;;4548657;28;20068;-56
2022/08/01 06:44:34;;;;;;;2.08;1.60;;;;;;;;;;4547598;28;20143;-58
2022/08/01 06:46:45;;;;;;;5.05;2.83;;;;;;;;;;4547507;28;20040;-58
2022/08/01 06:48:55;;;;;;;3.70;2.70;;;;;;;;;;4546882;28;20047;-57
2022/08/01 06:51:08;;;;;;;3.05;2.05;;;;;;;;;;4547191;28;20036;-58
2022/08/01 06:53:19;;;;;;;2.75;2.10;;;;;;;;;;4548301;28;20063;-58
2022/08/01 06:55:30;;;;;;;2.35;1.48;;;;;;;;;;4517279;28;20032;-58
2022/08/01 06:57:50;;;;;;;1.90;1.65;;;;;;;;;;4531405;28;20095;-57
2022/08/01 07:00:10;;;;;;;2.78;2.25;;;;;;;;;;4523007;28;20528;-58
2022/08/01 07:02:21;;;;;;;2.50;1.67;;;;;;;;;;4549035;28;20099;-57
2022/08/01 07:04:32;;;;;;;2.35;1.90;;;;;;;;;;4530750;28;20089;-57
2022/08/01 07:06:42;;;;;;;2.22;1.80;;;;;;;;;;4547835;28;20036;-57
2022/08/01 07:08:53;;;;;;;2.42;2.00;;;;;;;;;;4534373;28;20453;-57
2022/08/01 07:11:03;;;;;;;2.55;1.90;;;;;;;;;;4548624;28;20068;-57
2022/08/01 07:13:17;;;;;;;2.13;1.60;;;;;;;;;;4547977;28;20045;-57
2022/08/01 07:15:28;;;;;;;2.22;1.60;;;;;;;;;;4548110;28;20128;-57
2022/08/01 07:17:40;;;;;;;3.17;1.80;;;;;;;;;;4529558;28;20378;-57
2022/08/01 07:19:50;;;;;;;2.10;1.70;;;;;;;;;;4533497;28;20040;-57
2022/08/01 07:22:00;;;;;;;2.00;1.80;;;;;;;;;;4547810;28;20595;-57
2022/08/01 07:24:13;;;;;;;1.90;1.55;;;;;;;;;;4549036;28;20033;-57
2022/08/01 07:26:23;;;;;;;1.70;1.50;;;;;;;;;;4546399;28;20691;-57
2022/08/01 07:28:34;;;;;;;2.45;1.40;;;;;;;;;;4548291;28;20331;-57
2022/08/01 07:30:45;;;;;;;1.45;1.20;;;;;;;;;;4528907;28;20040;-57
2022/08/01 07:32:55;;;;;;;1.50;1.30;;;;;;;;;;4546596;28;20029;-58
2022/08/01 07:35:06;;;;;;;1.55;1.20;;;;;;;;;;4545765;28;20029;-58
2022/08/01 07:37:16;;;;;;;1.48;1.02;;;;;;;;;;4548106;28;20068;-58
2022/08/01 07:39:27;;;;;;;1.50;1.20;;;;;;;;;;4546164;28;20064;-59
2022/08/01 07:41:37;;;;;;;1.25;0.90;;;;;;;;;;4548033;28;20386;-58
2022/08/01 07:43:48;;;;;;;1.30;0.90;;;;;;;;;;4547906;28;20038;-58
2022/08/01 07:45:59;;;;;;;0.80;0.73;;;;;;;;;;4545768;28;20032;-58
2022/08/01 07:48:09;;;;;;;1.00;0.90;;;;;;;;;;4547987;28;20052;-58
2022/08/01 07:50:20;;;;;;;0.70;0.60;;;;;;;;;;4548081;28;20056;-58
2022/08/01 07:52:30;;;;;;;0.98;0.60;;;;;;;;;;4532280;28;20029;-58
2022/08/01 07:54:41;;;;;;;0.80;0.60;;;;;;;;;;4548797;28;20036;-58
2022/08/01 07:56:52;;;;;;;1.10;0.80;;;;;;;;;;4538517;28;20489;-58
2022/08/01 07:59:02;;;;;;;0.75;0.55;;;;;;;;;;4513628;28;20089;-58
2022/08/01 08:01:13;;;;;;;0.70;0.50;;;;;;;;;;4548829;28;20066;-57
2022/08/01 08:03:23;;;;;;;0.75;0.60;;;;;;;;;;4546674;28;20029;-58
2022/08/01 08:05:36;;;;;;;1.33;0.70;;;;;;;;;;4548405;28;20094;-58
2022/08/01 08:07:47;;;;;;;0.85;0.55;;;;;;;;;;4548105;28;20163;-58
2022/08/01 08:09:57;;;;;;;1.00;0.60;;;;;;;;;;4548420;28;20035;-59
2022/08/01 08:12:09;;;;;;;0.60;0.60;;;;;;;;;;4548926;28;20041;-57
2022/08/01 08:14:22;;;;;;;0.50;0.50;;;;;;;;;;4547228;28;20033;-58
2022/08/01 08:16:32;;;;;;;0.70;0.60;;;;;;;;;;4546966;28;20110;-58
2022/08/01 08:18:43;;;;;;;0.47;0.47;;;;;;;;;;4548011;28;20103;-58
2022/08/01 08:20:54;;;;;;;1.05;0.70;;;;;;;;;;4547105;28;20044;-57
2022/08/01 08:24:19;;;;;;;1.30;0.90;;;;;;;;;;4548214;28;20039;-59
2022/08/01 08:25:36;;;;;;;1.52;1.00;;;;;;;;;;4546714;28;20804;-59
2022/08/01 08:27:46;;;;;;;1.25;1.00;;;;;;;;;;4546467;28;20033;-59
2022/08/01 08:29:56;;;;;;;1.13;0.90;;;;;;;;;;4548131;28;20493;-59
2022/08/01 08:32:07;;;;;;;0.85;0.70;;;;;;;;;;4546859;28;20047;-59
2022/08/01 08:34:18;;;;;;;1.08;0.80;;;;;;;;;;4545722;28;20032;-57
2022/08/01 08:36:28;;;;;;;0.60;0.60;;;;;;;;;;4528603;28;20048;-58
2022/08/01 08:38:39;;;;;;;1.20;0.90;;;;;;;;;;4545633;28;20035;-58
2022/08/01 08:40:49;;;;;;;1.33;1.00;;;;;;;;;;4548405;28;20044;-58
2022/08/01 08:43:00;;;;;;;1.17;0.93;;;;;;;;;;4514588;28;20039;-58
2022/08/01 08:45:10;;;;;;;1.52;1.08;;;;;;;;;;4517085;28;20048;-58
2022/08/01 08:47:22;;;;;;;2.00;1.20;;;;;;;;;;4545207;28;20033;-58
2022/08/01 08:49:33;;;;;;;1.50;1.20;;;;;;;;;;4528214;28;20036;-58
2022/08/01 08:51:47;;;;;;;1.33;1.00;;;;;;;;;;4548327;28;20127;-58
2022/08/01 08:54:00;;;;;;;1.60;1.10;;;;;;;;;;4531318;28;20568;-59
2022/08/01 08:56:13;;;;;;;1.88;1.13;;;;;;;;;;4545956;28;20044;-58
2022/08/01 08:58:25;;;;;;;1.65;1.17;;;;;;;;;;4547010;28;20069;-58
2022/08/01 09:00:36;;;;;;;1.20;1.00;;;;;;;;;;4532005;28;20037;-58
2022/08/01 09:02:49;;;;;;;1.40;1.00;;;;;;;;;;4546356;28;20047;-57
2022/08/01 09:04:59;;;;;;;1.52;0.80;;;;;;;;;;4547309;28;21378;-58
2022/08/01 09:07:11;;;;;;;1.23;0.90;;;;;;;;;;4545656;28;20032;-58
2022/08/01 09:09:22;;;;;;;0.93;0.80;;;;;;;;;;4546321;28;20107;-57
2022/08/01 09:11:34;;;;;;;0.80;0.80;;;;;;;;;;4547233;28;20110;-58
2022/08/01 09:14:04;;;;;;;1.27;0.90;;;;;;;;;;4545579;28;20598;-58
2022/08/01 09:16:17;;;;;;;0.90;0.80;;;;;;;;;;4532751;28;20124;-58
2022/08/01 09:18:31;;;;;;;0.85;0.80;;;;;;;;;;4547051;28;21000;-57
2022/08/01 09:20:42;;;;;;;1.00;0.90;;;;;;;;;;4546038;28;20036;-60
2022/08/01 09:22:52;;;;;;;1.20;0.90;;;;;;;;;;4532375;28;20020;-58
2022/08/01 09:25:05;;;;;;;0.98;0.80;;;;;;;;;;4545317;28;20130;-57
2022/08/01 09:27:19;;;;;;;1.10;0.77;;;;;;;;;;4545046;28;20580;-58
2022/08/01 09:29:34;;;;;;;0.95;0.70;;;;;;;;;;4547536;28;20614;-58
2022/08/01 09:31:45;;;;;;;0.60;0.60;;;;;;;;;;4531353;28;20131;-57
2022/08/01 09:34:02;;;;;;;0.50;0.43;;;;;;;;;;4546918;28;20037;-57
2022/08/01 09:36:12;;;;;;;0.57;0.50;;;;;;;;;;4546208;28;20068;-58
2022/08/01 09:38:26;;;;;;;0.50;0.40;;;;;;;;;;4546615;28;20123;-58
2022/08/01 09:40:57;;;;;;;0.60;0.55;;;;;;;;;;4546373;28;20020;-58
2022/08/01 09:43:12;;;;;;;0.40;0.40;;;;;;;;;;4531345;28;20033;-58
2022/08/01 09:45:32;;;;;;;0.43;0.40;;;;;;;;;;4547889;28;20049;-59
2022/08/01 09:47:43;;;;;;;0.60;0.60;;;;;;;;;;4546799;28;20037;-58
2022/08/01 09:49:55;;;;;;;0.55;0.52;;;;;;;;;;4546674;28;20032;-58
2022/08/01 09:52:27;;;;;;;0.73;0.40;;;;;;;;;;4529204;28;20567;-58
2022/08/01 09:54:38;;;;;;;0.38;0.30;;;;;;;;;;4545231;28;20062;-58
2022/08/01 09:56:48;;;;;;;0.25;0.25;;;;;;;;;;4546199;28;20044;-58
2022/08/01 09:58:59;;;;;;;0.50;0.40;;;;;;;;;;4544632;28;20056;-58
2022/08/01 10:01:09;;;;;;;0.20;0.20;;;;;;;;;;4545291;28;20028;-58
2022/08/01 10:03:22;;;;;;;0.40;0.40;;;;;;;;;;4532149;28;20192;-59
2022/08/01 10:05:34;;;;;;;0.30;0.30;;;;;;;;;;4533937;28;20026;-58
2022/08/01 10:07:58;;;;;;;0.38;0.38;;;;;;;;;;4526640;28;20800;-58
2022/08/01 10:10:11;;;;;;;0.80;0.60;;;;;;;;;;4546008;28;20056;-57
2022/08/01 10:12:25;;;;;;;0.70;0.60;;;;;;;;;;4544802;28;20037;-58
2022/08/01 10:14:37;;;;;;;1.08;0.50;;;;;;;;;;4545196;28;20040;-58
2022/08/01 10:16:49;;;;;;;0.55;0.40;;;;;;;;;;4514120;28;20113;-58
2022/08/01 10:19:00;;;;;;;0.50;0.30;;;;;;;;;;4527215;28;20587;-58
2022/08/01 10:21:11;;;;;;;0.50;0.40;;;;;;;;;;4531797;28;20037;-58
2022/08/01 10:23:22;;;;;;;0.35;0.30;;;;;;;;;;4546099;28;20493;-57
2022/08/01 10:25:39;;;;;;;0.40;0.30;;;;;;;;;;4527860;28;20896;-57
2022/08/01 10:27:49;;;;;;;;;;;;;;;;;;4533480;28;20210;-58
2022/08/01 10:30:03;;;;;;;0.30;0.30;;;;;;;;;;4534238;28;19927;-59
2022/08/01 10:32:14;;;;;;;0.20;0.20;;;;;;;;;;4549438;28;21592;-58
2022/08/01 10:34:25;;;;;;;0.30;0.30;;;;;;;;;;4518581;28;20038;-58
2022/08/01 10:36:38;;;;;;;0.40;0.38;;;;;;;;;;4523036;28;20430;-58
2022/08/01 10:38:50;;;;;;;0.70;0.60;;;;;;;;;;4535799;28;20797;-58
2022/08/01 10:41:02;;;;;;;0.70;0.70;;;;;;;;;;4535408;28;20034;-57
2022/08/01 10:43:14;;;;;;;0.73;0.70;;;;;;;;;;4535082;28;20029;-59
2022/08/01 10:45:28;;;;;;;0.98;0.73;;;;;;;;;;4547377;28;20033;-58
2022/08/01 10:47:49;;;;;;;0.85;0.75;;;;;;;;;;4534411;28;20033;-58
2022/08/01 10:50:11;;;;;;;0.93;0.70;;;;;;;;;;4534074;28;20037;-57
2022/08/01 10:52:21;;;;;;;1.17;1.08;;;;;;;;;;4534150;28;20044;-57
2022/08/01 10:54:38;;;;;;;1.17;1.00;;;;;;;;;;4548654;28;20031;-58
2022/08/01 10:56:50;;;;;;;1.50;1.00;;;;;;;;;;4533331;28;20635;-58
2022/08/01 10:59:03;;;;;;;1.35;1.00;;;;;;;;;;4548439;28;20051;-58
2022/08/01 11:01:23;;;;;;;1.23;0.98;;;;;;;;;;4531001;28;20040;-58
2022/08/01 11:03:35;;;;;;;1.88;1.17;;;;;;;;;;4549936;28;20118;-58
2022/08/01 11:05:51;;;;;;;1.50;1.10;;;;;;;;;;4547672;28;20579;-57
2022/08/01 11:08:21;;;;;;;1.08;0.90;;;;;;;;;;4534324;28;20084;-58
2022/08/01 11:10:37;;;;;;;1.02;0.82;;;;;;;;;;4539005;28;20045;-58
2022/08/01 11:12:48;;;;;;;1.52;1.00;;;;;;;;;;4547920;28;20033;-58
2022/08/01 11:14:58;;;;;;;1.05;0.90;;;;;;;;;;4548596;28;20029;-59
2022/08/01 11:17:34;;;;;;;1.20;1.05;;;;;;;;;;4548073;28;20048;-58
2022/08/01 11:20:07;;;;;;;1.50;1.02;;;;;;;;;;4547841;28;20124;-59
2022/08/01 11:22:18;;;;;;;1.10;1.00;;;;;;;;;;4547911;28;20033;-58
2022/08/01 11:24:47;;;;;;;0.95;0.75;;;;;;;;;;4547986;28;20037;-58
2022/08/01 11:27:21;;;;;;;0.63;0.63;;;;;;;;;;4547963;28;20044;-57
2022/08/01 11:29:32;;;;;;;0.60;0.55;;;;;;;;;;4533550;28;20045;-58
2022/08/01 11:31:42;;;;;;;0.57;0.57;;;;;;;;;;4521176;28;20100;-57
2022/08/01 11:33:53;;;;;;;0.75;0.63;;;;;;;;;;4547769;28;20098;-58
2022/08/01 11:36:15;;;;;;;1.70;0.68;;;;;;;;;;4548646;28;20033;-59
2022/08/01 11:38:28;;;;;;;1.02;0.73;;;;;;;;;;4546359;28;20070;-57
2022/08/01 11:40:38;;;;;;;1.25;0.73;;;;;;;;;;4549140;28;20033;-58
2022/08/01 11:42:50;;;;;;;0.90;0.63;;;;;;;;;;4547017;28;20073;-57
2022/08/01 11:45:01;;;;;;;1.00;0.70;;;;;;;;;;4532262;28;20025;-58
2022/08/01 11:47:12;;;;;;;0.98;0.88;;;;;;;;;;4549295;28;20038;-57
2022/08/01 11:49:22;;;;;;;0.98;0.70;;;;;;;;;;4546850;28;20029;-57
2022/08/01 11:51:32;;;;;;;0.80;0.70;;;;;;;;;;4547413;28;20485;-57
2022/08/01 11:53:46;;;;;;;0.90;0.70;;;;;;;;;;4546840;28;20336;-58
2022/08/01 11:55:57;;;;;;;0.75;0.60;;;;;;;;;;4547022;28;20065;-57
2022/08/01 11:58:08;;;;;;;1.10;0.90;;;;;;;;;;4549507;28;20033;-58
2022/08/01 12:00:18;;;;;;;1.23;0.70;;;;;;;;;;4547276;28;20029;-57
2022/08/01 12:02:31;;;;;;;0.93;0.60;;;;;;;;;;4528691;28;20042;-58
2022/08/01 12:04:56;;;;;;;0.70;0.68;;;;;;;;;;4547217;28;20038;-58
2022/08/01 12:07:17;;;;;;;0.68;0.68;;;;;;;;;;4547550;28;20059;-58
2022/08/01 12:09:27;;;;;;;0.68;0.68;;;;;;;;;;4529402;28;20064;-58
2022/08/01 12:11:38;;;;;;;1.33;0.60;;;;;;;;;;4546568;28;20077;-58
2022/08/01 12:13:50;;;;;;;0.68;0.68;;;;;;;;;;4531953;28;20029;-58
2022/08/01 12:16:07;;;;;;;0.70;0.70;;;;;;;;;;4547776;28;20124;-58
2022/08/01 12:18:17;;;;;;;1.40;0.70;;;;;;;;;;4547451;28;20148;-58
2022/08/01 12:20:34;;;;;;;0.60;0.60;;;;;;;;;;4547020;28;20036;-58
2022/08/01 12:22:44;;;;;;;0.60;0.60;;;;;;;;;;4547097;28;20136;-58
2022/08/01 12:24:55;;;;;;;0.80;0.80;;;;;;;;;;4546081;28;20598;-58
2022/08/01 12:27:07;;;;;;;1.00;0.80;;;;;;;;;;4546118;28;20045;-58
2022/08/01 12:29:39;;;;;;;1.60;1.00;;;;;;;;;;4547929;28;20625;-58
2022/08/01 12:31:50;;;;;;;0.63;0.63;;;;;;;;;;4545025;28;20049;-57
2022/08/01 12:34:27;;;;;;;0.70;0.68;;;;;;;;;;4529207;28;20032;-58
2022/08/01 12:36:38;;;;;;;0.88;0.70;;;;;;;;;;4546007;28;20037;-58
2022/08/01 12:38:56;;;;;;;0.82;0.70;;;;;;;;;;4545798;28;20036;-58
2022/08/01 12:41:10;;;;;;;1.00;0.70;;;;;;;;;;4546044;28;20764;-59
2022/08/01 12:43:24;;;;;;;1.05;0.80;;;;;;;;;;4544212;28;20029;-58
2022/08/01 12:45:34;;;;;;;0.88;0.73;;;;;;;;;;4532146;28;20068;-58
2022/08/01 12:47:46;;;;;;;0.65;0.65;;;;;;;;;;4527637;28;20722;-58
2022/08/01 12:49:56;;;;;;;1.00;0.90;;;;;;;;;;4531865;28;20041;-58
2022/08/01 12:52:07;;;;;;;0.70;0.70;;;;;;;;;;4514633;28;20029;-58
2022/08/01 12:54:18;;;;;;;0.70;0.65;;;;;;;;;;4546183;28;20047;-58
2022/08/01 12:56:32;;;;;;;1.40;0.80;;;;;;;;;;4531426;28;20102;-58
2022/08/01 12:58:43;;;;;;;0.70;0.70;;;;;;;;;;4546391;28;20060;-58
2022/08/01 13:01:06;;;;;;;1.00;0.90;;;;;;;;;;4547434;28;20128;-58
2022/08/01 13:03:20;;;;;;;1.52;1.00;;;;;;;;;;4529924;28;20052;-58
2022/08/01 13:05:54;;;;;;;0.90;0.90;;;;;;;;;;4546264;28;20087;-58
2022/08/01 13:08:09;;;;;;;1.98;1.02;;;;;;;;;;4547520;28;20033;-58
2022/08/01 13:10:29;;;;;;;1.35;0.90;;;;;;;;;;4546630;28;20036;-59
2022/08/01 13:12:41;;;;;;;1.27;0.90;;;;;;;;;;4532198;28;20047;-58
2022/08/01 13:14:51;;;;;;;0.70;0.70;;;;;;;;;;4528317;28;20581;-58
2022/08/01 13:17:02;;;;;;;1.13;1.00;;;;;;;;;;4537885;28;20037;-57